Time;durP1;ratioP1;P1;durP2;ratioP2;P2;SDS_P1;SDS_P2;PMS_P1;PMS_P2;Temp;Humidity;BMP_temperature;BMP_pressure;BME280_temperature;BME280_humidity;BME280_pressure;Samples;Min_cycle;Max_cycle;Signal;HPM_P1;HPM_P2
2022/05/05 00:00:13;;;;;;;17.92;8.48;;;8.00;99.90;;;;;;5036600;28;20973;-65
2022/05/05 00:02:39;;;;;;;12.45;8.20;;;;;;;;;;5040323;28;20433;-66
2022/05/05 00:05:05;;;;;;;14.87;8.40;;;;;;;;;;5037096;28;20427;-65
2022/05/05 00:07:33;;;;;;;16.60;8.45;;;;;;;;;;5022075;28;20438;-65
2022/05/05 00:14:23;;;;;;;15.43;8.32;;;;;;;;;;5041609;28;20423;-65
2022/05/05 00:15:29;;;;;;;15.23;8.77;;;;;;;;;;5037695;28;20943;-65
2022/05/05 00:17:55;;;;;;;14.43;8.37;;;7.80;99.90;;;;;;5039261;28;20910;-65
2022/05/05 00:20:21;;;;;;;16.53;8.70;;;;;;;;;;5038727;28;20430;-65
2022/05/05 00:22:47;;;;;;;14.98;9.02;;;;;;;;;;5037296;28;20423;-64
2022/05/05 00:25:13;;;;;;;15.40;8.57;;;;;;;;;;5034947;28;20931;-65
2022/05/05 00:27:39;;;;;;;17.52;9.10;;;;;;;;;;5036173;28;20481;-65
2022/05/05 00:30:06;;;;;;;19.05;9.65;;;;;;;;;;5039693;28;20461;-65
2022/05/05 00:32:32;;;;;;;18.90;9.60;;;;;;;;;;5037841;28;20842;-65
2022/05/05 00:34:58;;;;;;;15.90;9.05;;;;;;;;;;5036607;28;20427;-64
2022/05/05 00:37:24;;;;;;;17.25;9.60;;;;;;;;;;5039937;28;20427;-65
2022/05/05 00:39:50;;;;;;;16.38;8.85;;;;;;;;;;5021541;28;20427;-65
2022/05/05 00:42:17;;;;;;;17.52;8.98;;;;;;;;;;5035105;28;20841;-65
2022/05/05 00:44:43;;;;;;;14.82;9.13;;;;;;;;;;5040012;28;21233;-65
2022/05/05 00:47:14;;;;;;;14.98;9.20;;;;;;;;;;5035894;28;20431;-65
2022/05/05 00:49:40;;;;;;;14.73;9.07;;;;;;;;;;5033961;28;20445;-65
2022/05/05 00:52:06;;;;;;;16.23;9.15;;;7.80;99.90;;;;;;5036763;28;20490;-64
2022/05/05 00:54:32;;;;;;;18.20;8.63;;;;;;;;;;5020919;28;20828;-65
2022/05/05 00:56:59;;;;;;;15.30;9.05;;;;;;;;;;5030667;28;20427;-65
2022/05/05 00:59:25;;;;;;;15.32;9.02;;;;;;;;;;5037850;28;20451;-64
2022/05/05 01:01:51;;;;;;;16.60;9.13;;;;;;;;;;5039333;28;20780;-64
2022/05/05 01:04:17;;;;;;;16.50;9.10;;;;;;;;;;5030899;28;20794;-64
2022/05/05 01:06:44;;;;;;;16.95;9.43;;;;;;;;;;5031211;28;20434;-64
2022/05/05 01:09:10;;;;;;;16.47;9.53;;;;;;;;;;5035198;28;20459;-63
2022/05/05 01:11:36;;;;;;;15.40;9.63;;;;;;;;;;5005173;28;20435;-64
2022/05/05 01:14:02;;;;;;;15.38;9.40;;;7.80;99.90;;;;;;5037275;28;20858;-63
2022/05/05 01:16:29;;;;;;;15.02;8.88;;;;;;;;;;5034643;28;20435;-64
2022/05/05 01:18:55;;;;;;;14.13;9.40;;;;;;;;;;5034372;28;20408;-64
2022/05/05 01:21:22;;;;;;;18.80;9.80;;;;;;;;;;5017920;28;20423;-64
2022/05/05 01:23:48;;;;;;;15.05;9.02;;;;;;;;;;5040263;28;20415;-65
2022/05/05 01:29:00;;;;;;;16.42;9.30;;;;;;;;;;5036059;28;20431;-64
2022/05/05 01:31:26;;;;;;;16.58;9.35;;;8.30;99.90;;;;;;5037197;28;20431;-64
2022/05/05 01:33:52;;;;;;;16.48;9.15;;;;;;;;;;5036485;28;20426;-65
2022/05/05 01:36:18;;;;;;;16.25;9.13;;;;;;;;;;5040419;28;20415;-65
2022/05/05 01:38:45;;;;;;;14.15;9.07;;;;;;;;;;5035467;28;20425;-64
2022/05/05 01:41:12;;;;;;;13.82;9.00;;;;;;;;;;5039350;28;20399;-64
2022/05/05 01:43:39;;;;;;;16.17;9.32;;;7.70;99.90;;;;;;5033146;28;20422;-64
2022/05/05 01:46:05;;;;;;;14.60;8.38;;;;;;;;;;5034998;28;21740;-65
2022/05/05 01:48:32;;;;;;;12.90;8.60;;;;;;;;;;5037095;28;20514;-65
2022/05/05 01:50:58;;;;;;;16.80;8.60;;;;;;;;;;5034856;28;20492;-65
2022/05/05 01:53:24;;;;;;;15.55;8.23;;;;;;;;;;5039391;28;20501;-64
2022/05/05 01:55:50;;;;;;;15.18;8.60;;;;;;;;;;5036108;28;20446;-64
2022/05/05 01:58:16;;;;;;;12.60;8.40;;;;;;;;;;5004518;28;20839;-65
2022/05/05 02:00:43;;;;;;;16.38;8.77;;;8.10;99.90;;;;;;5034604;28;20439;-64
2022/05/05 02:03:15;;;;;;;14.32;9.00;;;;;;;;;;5037825;28;20431;-65
2022/05/05 02:05:46;;;;;;;14.00;8.55;;;7.90;99.90;;;;;;5033217;28;20500;-64
2022/05/05 02:08:13;;;;;;;14.60;9.07;;;;;;;;;;5037526;28;20450;-64
2022/05/05 02:10:39;;;;;;;19.43;8.70;;;7.80;99.90;;;;;;5035636;28;20415;-64
2022/05/05 02:13:06;;;;;;;14.77;8.57;;;;;;;;;;5024379;28;20540;-65
2022/05/05 02:15:33;;;;;;;14.70;8.75;;;;;;;;;;5038404;28;20715;-64
2022/05/05 02:18:06;;;;;;;15.77;8.93;;;;;;;;;;5037598;28;20439;-64
2022/05/05 02:20:32;;;;;;;15.98;8.73;;;;;;;;;;5035985;28;20416;-64
2022/05/05 02:22:58;;;;;;;17.58;9.10;;;;;;;;;;5039586;28;20419;-65
2022/05/05 02:25:24;;;;;;;15.20;8.82;;;;;;;;;;5033979;28;20435;-65
2022/05/05 02:27:51;;;;;;;13.98;8.60;;;;;;;;;;5035882;28;20422;-64
2022/05/05 02:30:18;;;;;;;15.38;9.25;;;;;;;;;;5017841;28;20472;-64
2022/05/05 02:32:45;;;;;;;12.95;8.60;;;;;;;;;;5034594;28;20446;-65
2022/05/05 02:35:11;;;;;;;13.38;8.68;;;;;;;;;;5038035;28;20509;-64
2022/05/05 02:40:22;;;;;;;15.93;9.00;;;;;;;;;;5038280;28;20427;-65
2022/05/05 02:42:48;;;;;;;17.80;8.70;;;;;;;;;;5033159;28;20434;-65
2022/05/05 02:45:16;;;;;;;17.70;9.02;;;;;;;;;;5040897;28;21397;-65
2022/05/05 02:47:42;;;;;;;14.68;8.65;;;;;;;;;;5040539;28;20423;-65
2022/05/05 02:50:08;;;;;;;16.02;8.85;;;;;;;;;;5039714;28;20441;-65
2022/05/05 02:52:34;;;;;;;18.10;9.45;;;;;;;;;;5034655;28;20500;-64
2022/05/05 02:55:01;;;;;;;14.95;9.35;;;;;;;;;;5031371;28;20433;-65
2022/05/05 02:57:27;;;;;;;13.43;9.25;;;;;;;;;;5039973;28;20423;-64
2022/05/05 02:59:54;;;;;;;14.27;9.48;;;;;;;;;;5040815;28;21069;-64
2022/05/05 03:02:20;;;;;;;16.17;9.73;;;;;;;;;;5042437;28;20451;-65
2022/05/05 03:04:47;;;;;;;14.32;9.15;;;7.30;99.90;;;;;;5036945;28;20465;-65
2022/05/05 03:07:13;;;;;;;15.88;9.52;;;;;;;;;;5041867;28;20423;-63
2022/05/05 03:09:40;;;;;;;20.03;10.20;;;;;;;;;;5041488;28;20423;-64
2022/05/05 03:12:06;;;;;;;16.60;9.35;;;;;;;;;;5038620;28;20435;-65
2022/05/05 03:14:32;;;;;;;14.93;9.60;;;;;;;;;;5043071;28;20423;-64
2022/05/05 03:16:59;;;;;;;17.33;9.77;;;;;;;;;;5040478;28;20434;-65
2022/05/05 03:19:26;;;;;;;15.75;9.38;;;;;;;;;;5041888;28;20427;-65
2022/05/05 03:21:53;;;;;;;17.90;9.60;;;7.10;99.90;;;;;;5036861;28;20411;-65
2022/05/05 03:24:19;;;;;;;17.37;9.87;;;;;;;;;;5032103;28;20491;-65
2022/05/05 03:26:45;;;;;;;20.85;10.05;;;;;;;;;;5039901;28;20925;-64
2022/05/05 03:29:11;;;;;;;14.43;9.88;;;;;;;;;;5041677;28;20433;-65
2022/05/05 03:31:37;;;;;;;14.40;9.50;;;;;;;;;;5041060;28;20433;-65
2022/05/05 03:34:04;;;;;;;18.92;10.60;;;;;;;;;;5039209;28;20426;-64
2022/05/05 03:36:30;;;;;;;18.30;10.40;;;;;;;;;;5040871;28;20428;-65
2022/05/05 03:38:56;;;;;;;15.90;10.60;;;;;;;;;;5039197;28;20439;-64
2022/05/05 03:41:22;;;;;;;14.48;10.10;;;;;;;;;;5040581;28;20410;-64
2022/05/05 03:43:48;;;;;;;16.45;10.30;;;6.90;99.90;;;;;;5040771;28;20441;-63
2022/05/05 03:46:14;;;;;;;17.05;9.90;;;;;;;;;;5041552;28;20407;-64
2022/05/05 03:48:41;;;;;;;15.70;10.00;;;;;;;;;;5039309;28;20460;-64
2022/05/05 03:51:07;;;;;;;17.70;9.93;;;;;;;;;;5038627;28;20466;-64
2022/05/05 03:53:33;;;;;;;16.92;10.23;;;;;;;;;;5041959;28;20426;-64
2022/05/05 03:56:00;;;;;;;18.95;10.38;;;;;;;;;;5039158;28;20418;-65
2022/05/05 03:58:26;;;;;;;18.95;11.05;;;;;;;;;;5041729;28;20437;-65
2022/05/05 04:00:52;;;;;;;20.63;10.80;;;;;;;;;;5040051;28;20419;-64
2022/05/05 04:03:30;;;;;;;17.80;10.50;;;;;;;;;;5039013;28;20848;-66
2022/05/05 04:05:57;;;;;;;18.55;11.45;;;6.70;99.90;;;;;;5039296;28;20419;-64
2022/05/05 04:08:23;;;;;;;18.42;11.00;;;;;;;;;;5053059;28;20466;-65
2022/05/05 04:10:49;;;;;;;19.75;11.30;;;;;;;;;;5036685;28;20641;-64
2022/05/05 04:13:15;;;;;;;21.70;11.50;;;;;;;;;;5038398;28;20423;-64
2022/05/05 04:15:41;;;;;;;18.33;11.50;;;;;;;;;;5042009;28;20450;-64
2022/05/05 04:18:07;;;;;;;22.27;12.43;;;6.60;99.90;;;;;;5039332;28;20426;-65
2022/05/05 04:20:33;;;;;;;19.23;11.82;;;;;;;;;;5038307;28;20828;-65
2022/05/05 04:23:00;;;;;;;19.00;12.07;;;;;;;;;;5040295;28;20439;-65
2022/05/05 04:25:26;;;;;;;18.75;11.70;;;;;;;;;;5020203;28;20419;-64
2022/05/05 04:27:52;;;;;;;22.20;11.60;;;;;;;;;;5042111;28;20438;-64
2022/05/05 04:30:18;;;;;;;17.98;11.38;;;;;;;;;;5039622;28;20411;-64
2022/05/05 04:32:44;;;;;;;17.98;11.20;;;;;;;;;;5020372;28;20442;-65
2022/05/05 04:35:11;;;;;;;19.70;11.77;;;7.40;99.90;;;;;;5038560;28;20427;-64
2022/05/05 04:37:38;;;;;;;17.88;11.27;;;;;;;;;;5039621;28;20430;-64
2022/05/05 04:40:04;;;;;;;19.55;12.10;;;;;;;;;;5040820;28;20434;-64
2022/05/05 04:42:30;;;;;;;19.48;12.20;;;;;;;;;;5038134;28;20762;-65
2022/05/05 04:44:56;;;;;;;20.10;11.70;;;;;;;;;;5040561;28;20598;-64
2022/05/05 04:47:22;;;;;;;15.87;10.90;;;;;;;;;;5034737;28;20423;-64
2022/05/05 04:49:48;;;;;;;17.35;11.32;;;;;;;;;;5039175;28;20498;-65
2022/05/05 04:52:14;;;;;;;20.90;12.20;;;7.10;99.90;;;;;;5036552;28;20441;-64
2022/05/05 04:54:40;;;;;;;18.80;11.37;;;;;;;;;;5038642;28;20525;-64
2022/05/05 04:57:06;;;;;;;18.17;11.55;;;;;;;;;;5038591;28;20779;-64
2022/05/05 04:59:32;;;;;;;20.08;12.40;;;7.10;99.90;;;;;;5039374;28;20407;-65
2022/05/05 05:01:58;;;;;;;18.13;12.03;;;7.10;99.90;;;;;;5037135;28;20430;-64
2022/05/05 05:04:24;;;;;;;20.40;12.00;;;;;;;;;;5035746;28;20445;-64
2022/05/05 05:06:50;;;;;;;19.00;12.35;;;;;;;;;;5038832;28;20415;-65
2022/05/05 05:09:16;;;;;;;20.60;12.80;;;7.50;99.90;;;;;;5039121;28;20411;-64
2022/05/05 05:11:42;;;;;;;17.80;12.40;;;;;;;;;;5039080;28;20470;-65
2022/05/05 05:14:10;;;;;;;18.75;11.77;;;;;;;;;;5038680;28;20426;-63
2022/05/05 05:16:36;;;;;;;21.30;12.10;;;;;;;;;;5036010;28;20486;-64
2022/05/05 05:19:03;;;;;;;21.70;15.00;;;;;;;;;;5039324;28;20506;-64
2022/05/05 05:21:29;;;;;;;20.08;12.57;;;;;;;;;;5037437;28;20933;-64
2022/05/05 05:23:55;;;;;;;20.05;11.68;;;7.20;99.90;;;;;;5040152;28;20430;-64
2022/05/05 05:26:21;;;;;;;21.77;12.07;;;;;;;;;;5053910;28;20430;-64
2022/05/05 05:28:47;;;;;;;17.85;11.90;;;;;;;;;;5037212;28;21121;-64
2022/05/05 05:31:13;;;;;;;21.85;12.52;;;;;;;;;;5040033;28;20433;-64
2022/05/05 05:33:39;;;;;;;19.45;11.90;;;;;;;;;;5035974;28;20427;-65
2022/05/05 05:36:06;;;;;;;19.30;12.07;;;;;;;;;;5040073;28;20443;-65
2022/05/05 05:38:32;;;;;;;19.63;11.95;;;7.30;99.90;;;;;;5037361;28;20411;-65
2022/05/05 05:40:58;;;;;;;18.13;10.88;;;;;;;;;;5020997;28;20423;-65
2022/05/05 05:43:23;;;;;;;17.55;11.57;;;7.40;99.90;;;;;;5035258;28;20497;-65
2022/05/05 05:45:50;;;;;;;21.07;11.97;;;;;;;;;;5036226;28;20415;-65
2022/05/05 05:48:15;;;;;;;19.50;11.25;;;7.50;99.90;;;;;;5039612;28;20418;-64
2022/05/05 05:50:41;;;;;;;22.10;11.27;;;;;;;;;;5034767;28;20951;-65
2022/05/05 05:53:07;;;;;;;20.00;12.60;;;7.60;99.90;;;;;;5037185;28;20434;-65
2022/05/05 05:55:32;;;;;;;20.00;11.60;;;7.60;99.90;;;;;;5034989;28;20446;-65
2022/05/05 05:57:59;;;;;;;23.17;13.02;;;;;;;;;;5039682;28;20436;-65
2022/05/05 06:00:25;;;;;;;24.13;14.07;;;7.90;99.90;;;;;;5037245;28;20472;-65
2022/05/05 06:05:36;;;;;;;19.65;12.80;;;;;;;;;;5036497;28;20430;-64
2022/05/05 06:08:03;;;;;;;20.37;12.57;;;;;;;;;;5037423;28;20468;-65
2022/05/05 06:10:29;;;;;;;20.77;12.18;;;8.40;99.90;;;;;;5035504;28;20438;-65
2022/05/05 06:12:56;;;;;;;21.13;12.10;;;;;;;;;;5033702;28;20462;-65
2022/05/05 06:15:22;;;;;;;19.83;12.27;;;;;;;;;;5039006;28;20779;-64
2022/05/05 06:17:49;;;;;;;19.15;11.88;;;8.80;99.90;;;;;;5036846;28;20431;-64
2022/05/05 06:20:15;;;;;;;17.90;12.13;;;;;;;;;;5035399;28;21179;-65
2022/05/05 06:22:41;;;;;;;19.67;12.98;;;9.00;99.90;;;;;;5040195;28;20406;-65
2022/05/05 06:25:07;;;;;;;18.42;12.30;;;;;;;;;;5018222;28;20430;-64
2022/05/05 06:27:34;;;;;;;20.47;11.87;;;;;;;;;;5036940;28;20614;-64
2022/05/05 06:30:01;;;;;;;18.15;11.98;;;;;;;;;;5033459;28;20423;-64
2022/05/05 06:32:27;;;;;;;18.17;11.83;;;;;;;;;;5022965;28;20419;-65
2022/05/05 06:34:54;;;;;;;18.27;11.57;;;9.60;99.90;;;;;;5037884;28;20461;-65
2022/05/05 06:37:20;;;;;;;22.17;12.23;;;;;;;;;;5037719;28;20427;-65
2022/05/05 06:39:46;;;;;;;21.50;11.37;;;;;;;;;;5036803;28;20435;-65
2022/05/05 06:42:12;;;;;;;22.50;11.68;;;;;;;;;;5036245;28;20525;-65
2022/05/05 06:44:38;;;;;;;20.33;11.35;;;;;;;;;;5039058;28;20427;-65
2022/05/05 06:47:04;;;;;;;19.30;11.70;;;;;;;;;;5036405;28;21024;-65
2022/05/05 06:49:31;;;;;;;19.20;11.18;;;;;;;;;;5036975;28;20419;-65
2022/05/05 06:51:57;;;;;;;18.40;11.87;;;10.10;99.90;;;;;;5034645;28;21008;-65
2022/05/05 06:54:23;;;;;;;20.63;11.57;;;;;;;;;;5035373;28;20427;-64
2022/05/05 06:56:52;;;;;;;18.70;11.48;;;;;;;;;;5036583;28;20441;-64
2022/05/05 06:59:18;;;;;;;17.60;11.10;;;;;;;;;;5035193;28;20759;-64
2022/05/05 07:01:53;;;;;;;16.85;11.40;;;;;;;;;;5038032;28;20457;-65
2022/05/05 07:07:06;;;;;;;19.80;11.52;;;;;;;;;;5033308;28;20475;-65
2022/05/05 07:12:17;;;;;;;17.90;10.68;;;;;;;;;;5034832;28;20493;-66
2022/05/05 07:14:46;;;;;;;21.27;11.07;;;;;;;;;;5036919;28;20429;-66
2022/05/05 07:17:13;;;;;;;18.58;11.15;;;;;;;;;;5035221;28;20462;-65
2022/05/05 07:19:39;;;;;;;19.48;11.38;;;;;;;;;;5039665;28;20418;-65
2022/05/05 07:22:06;;;;;;;20.50;11.30;;;11.10;99.90;;;;;;5038021;28;20425;-64
2022/05/05 07:24:32;;;;;;;16.65;10.82;;;;;;;;;;5035837;28;20455;-66
2022/05/05 07:26:58;;;;;;;16.25;10.32;;;;;;;;;;5035837;28;20431;-64
2022/05/05 07:29:24;;;;;;;15.77;10.90;;;;;;;;;;5035108;28;20968;-65
2022/05/05 07:31:50;;;;;;;17.67;10.27;;;;;;;;;;5041626;28;20489;-63
2022/05/05 07:34:18;;;;;;;15.03;10.10;;;;;;;;;;5040708;28;20414;-64
2022/05/05 07:36:45;;;;;;;15.27;10.93;;;;;;;;;;5039030;28;20888;-64
2022/05/05 07:39:11;;;;;;;15.70;10.10;;;;;;;;;;5039540;28;20424;-64
2022/05/05 07:41:37;;;;;;;14.95;10.02;;;;;;;;;;5040465;28;20505;-64
2022/05/05 07:44:05;;;;;;;16.63;10.25;;;;;;;;;;5038999;28;20427;-65
2022/05/05 07:46:32;;;;;;;16.50;9.40;;;;;;;;;;5037742;28;20790;-64
2022/05/05 07:48:58;;;;;;;15.98;9.80;;;;;;;;;;5040222;28;20556;-65
2022/05/05 07:51:25;;;;;;;15.40;9.10;;;;;;;;;;5038466;28;20486;-64
2022/05/05 07:56:36;;;;;;;16.25;9.60;;;13.20;99.90;;;;;;5027783;28;20416;-65
2022/05/05 07:59:02;;;;;;;18.00;9.75;;;;;;;;;;5039930;28;20413;-64
2022/05/05 08:01:29;;;;;;;17.70;10.07;;;;;;;;;;5041035;28;20489;-65
2022/05/05 08:03:55;;;;;;;16.52;8.88;;;;;;;;;;5038674;28;20962;-65
2022/05/05 08:06:21;;;;;;;14.10;8.57;;;;;;;;;;5038932;28;20506;-65
2022/05/05 08:08:47;;;;;;;16.57;8.53;;;;;;;;;;5019472;28;20407;-65
2022/05/05 08:11:13;;;;;;;15.50;8.73;;;;;;;;;;5039361;28;20426;-65
2022/05/05 08:13:39;;;;;;;15.70;7.72;;;;;;;;;;5039943;28;20970;-64
2022/05/05 08:16:06;;;;;;;14.27;8.30;;;;;;;;;;5038081;28;20578;-65
2022/05/05 08:18:32;;;;;;;14.80;7.93;;;;;;;;;;5038652;28;20431;-64
2022/05/05 08:20:59;;;;;;;16.83;8.07;;;;;;;;;;5034386;28;20528;-66
2022/05/05 08:23:25;;;;;;;14.88;8.18;;;;;;;;;;5023419;28;20901;-65
2022/05/05 08:28:38;;;;;;;16.20;9.00;;;;;;;;;;5036498;28;20427;-65
2022/05/05 08:31:04;;;;;;;17.52;8.52;;;13.80;99.90;;;;;;5039121;28;20429;-64
2022/05/05 08:33:30;;;;;;;15.03;8.40;;;;;;;;;;5036551;28;20431;-66
2022/05/05 08:35:59;;;;;;;17.17;8.02;;;;;;;;;;5039590;28;20455;-63
2022/05/05 08:38:26;;;;;;;14.30;7.40;;;;;;;;;;5035345;28;20449;-64
2022/05/05 08:40:52;;;;;;;14.00;7.57;;;;;;;;;;5038338;28;21038;-64
2022/05/05 08:43:18;;;;;;;12.60;6.82;;;15.00;99.90;;;;;;5037057;28;20472;-64
2022/05/05 08:45:47;;;;;;;13.93;7.82;;;;;;;;;;5037823;28;20411;-64
2022/05/05 08:48:14;;;;;;;13.73;6.88;;;;;;;;;;5038855;28;20431;-65
2022/05/05 08:50:40;;;;;;;12.48;6.43;;;;;;;;;;5039565;28;20431;-64
2022/05/05 08:53:07;;;;;;;13.05;7.28;;;;;;;;;;5037280;28;20836;-65
2022/05/05 08:55:34;;;;;;;12.23;6.65;;;14.30;99.90;;;;;;5036506;28;20442;-65
2022/05/05 08:58:01;;;;;;;11.93;7.40;;;;;;;;;;5034607;28;20528;-64
2022/05/05 09:00:27;;;;;;;14.18;7.10;;;14.80;99.90;;;;;;5036715;28;20423;-65
2022/05/05 09:02:54;;;;;;;15.33;6.57;;;;;;;;;;5026154;28;21219;-65
2022/05/05 09:05:39;;;;;;;10.73;6.03;;;;;;;;;;5036492;28;20438;-63
2022/05/05 09:08:05;;;;;;;13.90;6.07;;;;;;;;;;5031685;28;20434;-65
2022/05/05 09:10:42;;;;;;;11.48;5.50;;;;;;;;;;5038166;28;20419;-65
2022/05/05 09:13:07;;;;;;;11.35;5.68;;;15.70;99.90;;;;;;5030805;28;20442;-65
2022/05/05 09:15:35;;;;;;;13.77;6.60;;;;;;;;;;5040725;28;20413;-65
2022/05/05 09:18:20;;;;;;;12.73;6.15;;;;;;;;;;5037701;28;20423;-64
2022/05/05 09:20:47;;;;;;;9.88;5.75;;;;;;;;;;5037810;28;20973;-65
2022/05/05 09:23:30;;;;;;;11.75;6.70;;;16.20;99.90;;;;;;5016718;28;21004;-65
2022/05/05 09:25:56;;;;;;;11.13;6.22;;;16.20;99.90;;;;;;5049429;28;21092;-66
2022/05/05 09:28:25;;;;;;;12.63;6.53;;;;;;;;;;5039833;28;20455;-65
2022/05/05 09:30:52;;;;;;;11.85;6.40;;;;;;;;;;5035780;28;20442;-67
2022/05/05 09:33:34;;;;;;;10.10;6.32;;;16.90;99.90;;;;;;5031898;28;20966;-67
2022/05/05 09:36:02;;;;;;;9.40;6.20;;;;;;;;;;5039000;28;20422;-66
2022/05/05 09:38:47;;;;;;;11.40;6.40;;;;;;;;;;5036006;28;20477;-67
2022/05/05 09:41:13;;;;;;;10.33;6.30;;;;;;;;;;5032475;28;20426;-67
2022/05/05 09:43:39;;;;;;;8.85;6.20;;;17.20;99.90;;;;;;5037680;28;20427;-66
2022/05/05 09:46:24;;;;;;;9.65;6.32;;;;;;;;;;5036080;28;20411;-67
2022/05/05 09:48:50;;;;;;;9.65;6.28;;;;;;;;;;5040660;28;20412;-66
2022/05/05 09:51:17;;;;;;;9.63;6.43;;;;;;;;;;5035122;28;20441;-67
2022/05/05 09:59:35;;;;;;;10.57;6.93;;;;;;;;;;4994374;28;20425;-67
2022/05/05 10:02:07;;;;;;;9.55;6.53;;;;;;;;;;5029374;28;20434;-67
2022/05/05 10:04:39;;;;;;;11.20;6.35;;;17.40;99.90;;;;;;5032775;28;20446;-67
2022/05/05 10:07:06;;;;;;;9.82;6.60;;;;;;;;;;5033352;28;20463;-67
2022/05/05 10:09:33;;;;;;;9.98;6.18;;;;;;;;;;5036667;28;20423;-66
2022/05/05 10:11:59;;;;;;;10.40;6.22;;;;;;;;;;5034023;28;20552;-66
2022/05/05 10:14:26;;;;;;;10.82;6.57;;;;;;;;;;5036861;28;20486;-67
2022/05/05 10:16:54;;;;;;;9.15;5.90;;;18.10;99.90;;;;;;5030641;28;20425;-67
2022/05/05 10:19:19;;;;;;;9.27;6.93;;;17.60;99.90;;;;;;5035324;28;20946;-67
2022/05/05 10:22:08;;;;;;;10.93;7.00;;;17.60;99.90;;;;;;5035986;28;20428;-67
2022/05/05 10:24:44;;;;;;;10.68;7.40;;;;;;;;;;5029604;28;20430;-66
2022/05/05 10:27:10;;;;;;;9.65;6.68;;;18.30;99.90;;;;;;5040173;28;20430;-67
2022/05/05 10:29:40;;;;;;;9.00;6.22;;;18.80;99.90;;;;;;5036879;28;20407;-67
2022/05/05 10:32:09;;;;;;;9.02;6.15;;;18.70;99.90;;;;;;5036496;28;20435;-67
2022/05/05 10:34:39;;;;;;;10.10;6.82;;;19.00;99.90;;;;;;5037193;28;20472;-67
2022/05/05 10:37:10;;;;;;;15.73;7.68;;;19.30;99.90;;;;;;5039603;28;20425;-66
2022/05/05 10:39:56;;;;;;;12.13;7.13;;;19.00;99.90;;;;;;5037397;28;20411;-66
2022/05/05 10:42:34;;;;;;;11.35;7.93;;;18.90;99.90;;;;;;5034476;28;20434;-67
2022/05/05 10:45:05;;;;;;;11.38;8.07;;;;;;;;;;5039658;28;20426;-67
2022/05/05 10:47:54;;;;;;;10.70;7.82;;;18.60;99.90;;;;;;5019356;28;20427;-67
2022/05/05 10:50:42;;;;;;;13.27;8.32;;;18.70;99.90;;;;;;5035266;28;21188;-67
2022/05/05 10:53:24;;;;;;;12.77;7.22;;;18.70;99.90;;;;;;5037286;28;20518;-67
2022/05/05 10:55:50;;;;;;;11.13;7.47;;;18.90;99.90;;;;;;5017705;28;20471;-66
2022/05/05 10:58:53;;;;;;;10.13;7.33;;;18.80;99.90;;;;;;5030672;28;20529;-67
2022/05/05 11:01:19;;;;;;;11.18;7.50;;;;;;;;;;5038865;28;20419;-67
2022/05/05 11:04:04;;;;;;;12.45;8.05;;;18.70;99.90;;;;;;5033816;28;20509;-67
2022/05/05 11:06:32;;;;;;;10.80;7.60;;;;;;;;;;5041590;28;20422;-68
2022/05/05 11:08:58;;;;;;;10.85;7.43;;;19.20;99.90;;;;;;5041191;28;20430;-66
2022/05/05 11:11:42;;;;;;;11.10;7.75;;;19.50;99.90;;;;;;5042012;28;20496;-67
2022/05/05 11:23:07;;;;;;;10.45;7.40;;;19.90;99.90;;;;;;5041342;28;20513;-67
2022/05/05 11:25:33;;;;;;;10.63;7.05;;;20.10;99.90;;;;;;5037725;28;20481;-67
2022/05/05 11:27:59;;;;;;;10.47;7.10;;;20.40;99.90;;;;;;5040840;28;20450;-67
2022/05/05 11:30:25;;;;;;;9.07;7.00;;;20.00;99.90;;;;;;5022818;28;20434;-67
2022/05/05 11:32:50;;;;;;;12.48;6.97;;;20.20;99.90;;;;;;5042513;28;20427;-67
2022/05/05 11:35:21;;;;;;;9.52;6.72;;;20.20;99.90;;;;;;5039332;28;20433;-66
2022/05/05 11:37:47;;;;;;;11.80;7.35;;;20.40;99.90;;;;;;5038110;28;20520;-67
2022/05/05 11:40:14;;;;;;;9.52;6.70;;;18.00;99.90;;;;;;5008358;28;20425;-67
2022/05/05 11:45:37;;;;;;;9.77;6.97;;;20.70;99.90;;;;;;5041202;28;20423;-66
2022/05/05 11:48:16;;;;;;;13.32;7.30;;;20.80;99.90;;;;;;5042213;28;20409;-66
2022/05/05 11:50:45;;;;;;;9.65;7.32;;;20.80;99.90;;;;;;5019384;28;20427;-67
2022/05/05 11:53:16;;;;;;;11.48;7.68;;;20.70;99.90;;;;;;5041709;28;20435;-66
2022/05/05 11:55:44;;;;;;;11.13;7.57;;;20.60;99.90;;;;;;5021587;28;20706;-66
2022/05/05 12:04:00;;;;;;;10.90;7.20;;;20.90;99.90;;;;;;5040206;28;20415;-66
2022/05/05 12:06:27;;;;;;;8.93;6.93;;;20.80;99.90;;;;;;5038349;28;20461;-66
2022/05/05 12:08:55;;;;;;;9.20;7.00;;;20.90;99.90;;;;;;5039143;28;20419;-67
2022/05/05 12:11:21;;;;;;;10.25;7.22;;;21.10;99.90;;;;;;5036757;28;20446;-66
2022/05/05 12:13:48;;;;;;;10.35;7.13;;;20.90;99.90;;;;;;5022251;28;20427;-65
2022/05/05 12:16:17;;;;;;;10.13;6.45;;;21.00;99.90;;;;;;5018398;28;20427;-67
2022/05/05 12:18:53;;;;;;;9.10;6.70;;;21.30;99.90;;;;;;5041338;28;20411;-66
2022/05/05 12:21:23;;;;;;;8.65;6.22;;;23.80;99.90;;;;;;5037682;28;20435;-66
2022/05/05 12:24:15;;;;;;;9.00;6.47;;;21.00;99.90;;;;;;5022013;28;20446;-66
2022/05/05 12:26:41;;;;;;;9.20;6.05;;;20.80;99.90;;;;;;5039975;28;20425;-66
2022/05/05 12:29:17;;;;;;;8.80;6.43;;;21.00;99.90;;;;;;5040148;28;20423;-67
2022/05/05 12:31:57;;;;;;;7.60;5.70;;;21.00;99.90;;;;;;5038386;28;20450;-66
2022/05/05 12:34:27;;;;;;;9.50;6.70;;;21.00;99.90;;;;;;5039666;28;20419;-66
2022/05/05 12:37:18;;;;;;;9.27;6.00;;;21.30;99.90;;;;;;5041983;28;20498;-67
2022/05/05 12:39:57;;;;;;;9.73;6.20;;;21.90;99.90;;;;;;5038131;28;20424;-67
2022/05/05 12:42:24;;;;;;;9.63;6.30;;;21.60;99.90;;;;;;5038923;28;20426;-67
2022/05/05 12:44:51;;;;;;;10.07;5.60;;;21.60;99.90;;;;;;5020826;28;20416;-67
2022/05/05 12:47:24;;;;;;;9.18;6.28;;;21.40;99.90;;;;;;5031292;28;20434;-67
2022/05/05 12:49:50;;;;;;;10.45;6.53;;;21.80;99.90;;;;;;5028725;28;20776;-67
2022/05/05 13:00:51;;;;;;;8.68;6.35;;;22.00;99.30;;;;;;5035512;28;20427;-67
2022/05/05 13:03:18;;;;;;;10.98;6.10;;;21.90;99.50;;;;;;5015704;28;20429;-66
2022/05/05 13:05:46;;;;;;;10.35;6.15;;;22.00;99.90;;;;;;5034211;28;20439;-67
2022/05/05 13:08:12;;;;;;;10.75;6.78;;;21.90;99.60;;;;;;5031400;28;20421;-66
2022/05/05 13:10:38;;;;;;;10.38;6.78;;;22.00;99.50;;;;;;5033398;28;20494;-67
2022/05/05 13:13:04;;;;;;;16.77;7.35;;;22.20;99.20;;;;;;5030763;28;20457;-67
2022/05/05 13:15:30;;;;;;;9.35;6.60;;;22.50;98.90;;;;;;5017211;28;20431;-66
2022/05/05 13:17:55;;;;;;;8.37;5.93;;;22.50;98.70;;;;;;5033099;28;20544;-66
2022/05/05 13:20:22;;;;;;;8.67;6.20;;;22.70;98.70;;;;;;5033935;28;20498;-66
2022/05/05 13:22:47;;;;;;;25.00;8.07;;;22.50;98.50;;;;;;5029901;28;20514;-67
2022/05/05 13:25:13;;;;;;;14.10;6.80;;;23.10;98.60;;;;;;5016458;28;20442;-66
2022/05/05 13:27:39;;;;;;;11.98;6.65;;;23.40;98.30;;;;;;5032155;28;20990;-66
2022/05/05 13:30:06;;;;;;;8.63;6.53;;;23.00;97.90;;;;;;5029975;28;20455;-67
2022/05/05 13:32:31;;;;;;;9.87;6.67;;;23.50;97.50;;;;;;5034554;28;20431;-67
2022/05/05 13:34:57;;;;;;;10.70;7.40;;;23.30;98.00;;;;;;5033702;28;20438;-66
2022/05/05 13:37:23;;;;;;;7.95;6.55;;;23.50;97.80;;;;;;5012575;28;20469;-67
2022/05/05 13:39:48;;;;;;;12.67;6.50;;;23.10;97.30;;;;;;5032850;28;20463;-67
2022/05/05 13:42:15;;;;;;;9.25;6.45;;;23.70;97.60;;;;;;5033227;28;20494;-67
2022/05/05 13:44:40;;;;;;;11.32;6.90;;;23.50;97.20;;;;;;5033262;28;20426;-67
2022/05/05 13:47:07;;;;;;;10.38;7.00;;;23.80;97.00;;;;;;5033483;28;21152;-68
2022/05/05 13:49:33;;;;;;;11.15;7.10;;;23.10;97.50;;;;;;5031054;28;20509;-66
2022/05/05 13:51:59;;;;;;;11.47;7.07;;;23.10;97.50;;;;;;5031801;28;20466;-66
2022/05/05 13:54:24;;;;;;;9.40;7.13;;;22.40;97.90;;;;;;5034930;28;20579;-67
2022/05/05 13:56:50;;;;;;;10.27;7.18;;;22.50;98.20;;;;;;5033167;28;20426;-66
2022/05/05 13:59:16;;;;;;;10.20;7.85;;;22.30;98.70;;;;;;5045853;28;20434;-66
2022/05/05 14:01:42;;;;;;;9.73;7.27;;;24.50;99.30;;;;;;5016757;28;20434;-67
2022/05/05 14:04:07;;;;;;;10.47;7.43;;;22.10;99.10;;;;;;5035934;28;20439;-66
2022/05/05 14:06:33;;;;;;;10.35;7.40;;;22.10;99.10;;;;;;5038710;28;20415;-66
2022/05/05 14:14:27;;;;;;;9.30;6.23;;;22.00;98.40;;;;;;5036770;28;21024;-66
2022/05/05 14:16:54;;;;;;;8.33;6.17;;;21.90;98.90;;;;;;5036720;28;20419;-66
2022/05/05 14:19:19;;;;;;;9.23;6.10;;;21.90;98.90;;;;;;4990213;28;20474;-66
2022/05/05 14:21:45;;;;;;;9.37;6.27;;;21.80;98.80;;;;;;5017531;28;20853;-66
2022/05/05 14:24:12;;;;;;;11.13;7.65;;;21.70;99.10;;;;;;5039002;28;20417;-66
2022/05/05 14:26:38;;;;;;;8.68;6.30;;;21.90;99.20;;;;;;5037069;28;20430;-65
2022/05/05 14:29:04;;;;;;;8.38;6.18;;;21.60;99.50;;;;;;5036813;28;20391;-67
2022/05/05 14:31:31;;;;;;;10.85;6.40;;;21.30;99.20;;;;;;5040021;28;20439;-66
2022/05/05 14:33:57;;;;;;;9.35;6.47;;;21.40;99.40;;;;;;5035184;28;20427;-67
2022/05/05 14:36:24;;;;;;;8.87;6.13;;;21.30;99.20;;;;;;5039059;28;20543;-67
2022/05/05 14:38:50;;;;;;;9.60;6.07;;;21.40;99.20;;;;;;5036646;28;20522;-66
2022/05/05 14:41:15;;;;;;;9.32;6.13;;;21.70;98.80;;;;;;5034437;28;20451;-67